Terminal Aerodrome Forecast
Issued by NWS Riverton, WY

Home | Current Version | Previous Version | Text Only | Print | Product List | Glossary On
Versions: 1 2 3 4 5 6 7 8 9 10 11 12 13 14 15 16 17 18 19
460
FTUS45 KRIW 221729
TAFRIW
TAF
KRIW 221729Z 2218/2318 VRB05KT P6SM BKN200
     FM230200 23005KT P6SM SCT120 BKN200
     FM231200 21006KT P6SM BKN120=

USA.gov is the U.S. government's official web portal to all federal, state and local government web resources and services.